createdAt,value
2023-03-06T00:00:47.124Z,15.68
2023-03-06T00:03:14.484Z,15.93
2023-03-06T00:05:42.411Z,16.00
2023-03-06T00:08:09.674Z,16.92
2023-03-06T00:10:37.146Z,15.73
2023-03-06T00:13:07.590Z,14.52
2023-03-06T00:15:35.160Z,14.20
2023-03-06T00:18:06.486Z,15.02
2023-03-06T00:20:34.972Z,13.80
2023-03-06T00:23:02.929Z,13.25
2023-03-06T00:25:30.449Z,13.48
2023-03-06T00:27:57.948Z,11.40
2023-03-06T00:30:25.747Z,12.18
2023-03-06T00:32:53.774Z,10.82
2023-03-06T00:35:21.599Z,12.73
2023-03-06T00:37:49.020Z,11.20
2023-03-06T00:40:19.416Z,10.90
2023-03-06T00:42:47.133Z,10.48
2023-03-06T00:45:15.508Z,11.20
2023-03-06T00:47:43.295Z,10.65
2023-03-06T00:50:11.232Z,12.32
2023-03-06T00:52:38.727Z,11.82
2023-03-06T00:55:06.704Z,11.38
2023-03-06T00:57:34.107Z,10.82
2023-03-06T01:00:01.909Z,11.52
2023-03-06T01:02:29.287Z,12.02
2023-03-06T01:04:56.729Z,12.55
2023-03-06T01:07:24.083Z,11.98
2023-03-06T01:09:51.387Z,11.65
2023-03-06T01:12:18.752Z,10.65
2023-03-06T01:14:46.012Z,11.90
2023-03-06T01:17:13.476Z,11.13
2023-03-06T01:19:42.238Z,12.75
2023-03-06T01:22:09.616Z,12.93
2023-03-06T01:24:38.286Z,12.98
2023-03-06T01:27:05.646Z,12.80
2023-03-06T01:29:33.020Z,13.30
2023-03-06T01:32:00.311Z,12.65
2023-03-06T01:34:27.712Z,14.40
2023-03-06T01:36:54.976Z,13.73
2023-03-06T01:39:22.327Z,13.77
2023-03-06T01:41:49.899Z,14.23
2023-03-06T01:44:17.195Z,14.65
2023-03-06T01:46:45.724Z,13.75
2023-03-06T01:49:21.711Z,14.10
2023-03-06T01:52:00.944Z,14.90
2023-03-06T01:54:51.022Z,12.25
2023-03-06T01:57:19.753Z,13.73
2023-03-06T01:59:51.674Z,13.13
2023-03-06T02:04:46.582Z,13.60
2023-03-06T02:07:15.662Z,14.80
2023-03-06T02:09:42.979Z,14.43
2023-03-06T02:12:14.581Z,14.30
2023-03-06T02:14:42.762Z,13.48
2023-03-06T02:17:13.121Z,13.45
2023-03-06T02:19:58.470Z,14.50
2023-03-06T02:22:43.602Z,13.82
2023-03-06T02:25:35.817Z,14.70
2023-03-06T02:28:05.047Z,14.93
2023-03-06T02:30:32.766Z,14.18
2023-03-06T02:33:01.658Z,14.75
2023-03-06T02:35:31.694Z,14.60
2023-03-06T02:38:06.120Z,15.55
2023-03-06T02:40:33.554Z,14.65
2023-03-06T02:43:01.717Z,14.00
2023-03-06T02:45:37.224Z,14.65
2023-03-06T02:48:04.900Z,15.05
2023-03-06T02:50:32.531Z,14.27
2023-03-06T02:53:01.718Z,15.10
2023-03-06T02:55:31.496Z,14.30
2023-03-06T02:57:59.108Z,14.20
2023-03-06T03:00:27.105Z,14.05
2023-03-06T03:02:54.645Z,14.52
2023-03-06T03:05:22.306Z,14.27
2023-03-06T03:07:56.669Z,14.00
2023-03-06T03:10:24.228Z,14.13
2023-03-06T03:12:51.841Z,14.43
2023-03-06T03:15:20.468Z,13.45
2023-03-06T03:17:47.947Z,14.68
2023-03-06T03:20:18.356Z,13.95
2023-03-06T03:22:53.682Z,13.93
2023-03-06T03:25:25.062Z,13.43
2023-03-06T03:27:55.260Z,13.70
2023-03-06T03:30:23.179Z,15.15
2023-03-06T03:32:50.762Z,14.82
2023-03-06T03:35:18.258Z,13.43
2023-03-06T03:37:46.715Z,14.85
2023-03-06T03:40:14.663Z,14.32
2023-03-06T03:42:41.999Z,15.48
2023-03-06T03:45:10.942Z,14.27
2023-03-06T03:47:38.338Z,15.80
2023-03-06T03:50:07.040Z,14.82
2023-03-06T03:52:35.305Z,14.27
2023-03-06T03:55:03.295Z,14.48
2023-03-06T03:57:30.668Z,15.52
2023-03-06T03:59:59.038Z,15.23
2023-03-06T04:02:44.861Z,13.57
2023-03-06T04:05:21.841Z,15.10
2023-03-06T04:07:49.388Z,14.50
2023-03-06T04:10:17.206Z,15.52
2023-03-06T04:12:44.774Z,14.27
2023-03-06T04:15:12.906Z,15.07
2023-03-06T04:17:40.617Z,15.75
2023-03-06T04:22:40.136Z,14.68
2023-03-06T04:25:08.430Z,15.57
2023-03-06T04:27:36.397Z,15.63
2023-03-06T04:30:05.536Z,15.50
2023-03-06T04:32:34.232Z,16.42
2023-03-06T04:35:02.362Z,15.75
2023-03-06T04:37:35.123Z,15.05
2023-03-06T04:40:02.644Z,14.98
2023-03-06T04:42:30.293Z,15.13
2023-03-06T04:44:57.990Z,15.77
2023-03-06T04:47:25.240Z,16.38
2023-03-06T04:49:52.501Z,16.08
2023-03-06T04:52:19.867Z,16.70
2023-03-06T04:54:47.164Z,15.02
2023-03-06T04:57:14.520Z,16.80
2023-03-06T04:59:41.754Z,16.33
2023-03-06T05:02:09.013Z,16.63
2023-03-06T05:04:36.268Z,15.50
2023-03-06T05:07:03.531Z,17.08
2023-03-06T05:09:30.755Z,16.58
2023-03-06T05:11:58.031Z,15.63
2023-03-06T05:14:25.324Z,17.10
2023-03-06T05:16:52.618Z,16.88
2023-03-06T05:19:19.833Z,17.17
2023-03-06T05:21:47.454Z,17.10
2023-03-06T05:24:15.003Z,16.88
2023-03-06T05:26:42.238Z,16.45
2023-03-06T05:29:09.558Z,17.33
2023-03-06T05:31:36.741Z,17.70
2023-03-06T05:34:04.031Z,17.63
2023-03-06T05:36:31.259Z,17.85
2023-03-06T05:38:58.593Z,17.77
2023-03-06T05:41:25.806Z,19.23
2023-03-06T05:43:53.490Z,17.65
2023-03-06T05:46:20.748Z,18.95
2023-03-06T05:48:47.985Z,17.30
2023-03-06T05:51:15.411Z,18.83
2023-03-06T05:53:42.649Z,18.08
2023-03-06T05:56:10.086Z,17.05
2023-03-06T05:58:38.178Z,16.95
2023-03-06T06:01:17.239Z,18.15
2023-03-06T06:03:45.482Z,18.25
2023-03-06T06:06:15.125Z,16.50
2023-03-06T06:08:42.980Z,18.25
2023-03-06T06:11:12.221Z,17.95
2023-03-06T06:13:40.326Z,18.80
2023-03-06T06:16:13.146Z,18.50
2023-03-06T06:18:41.452Z,17.73
2023-03-06T06:21:10.898Z,17.67
2023-03-06T06:23:38.132Z,17.90
2023-03-06T06:26:07.480Z,18.48
2023-03-06T06:28:35.155Z,18.35
2023-03-06T06:31:12.364Z,18.67
2023-03-06T06:33:40.652Z,18.17
2023-03-06T06:36:16.441Z,19.20
2023-03-06T06:38:44.091Z,17.63
2023-03-06T06:41:36.125Z,17.70
2023-03-06T06:43:59.214Z,18.33
2023-03-06T06:47:14.372Z,17.63
2023-03-06T06:49:15.504Z,17.40
2023-03-06T06:51:42.729Z,18.48
2023-03-06T06:54:11.242Z,18.75
2023-03-06T06:56:38.447Z,19.83
2023-03-06T06:59:16.193Z,18.10
2023-03-06T07:01:45.126Z,18.00
2023-03-06T07:04:16.044Z,19.48
2023-03-06T07:06:43.276Z,18.00
2023-03-06T07:09:10.664Z,18.65
2023-03-06T07:11:38.873Z,18.67
2023-03-06T07:14:06.229Z,17.58
2023-03-06T07:16:33.434Z,18.30
2023-03-06T07:19:00.775Z,19.05
2023-03-06T07:21:27.945Z,17.75
2023-03-06T07:23:57.536Z,18.25
2023-03-06T07:26:28.382Z,17.40
2023-03-06T07:28:55.683Z,17.50
2023-03-06T07:31:26.268Z,18.35
2023-03-06T07:33:54.740Z,19.65
2023-03-06T07:36:23.617Z,18.15
2023-03-06T07:38:50.974Z,17.80
2023-03-06T07:41:21.862Z,18.08
2023-03-06T07:43:50.090Z,18.83
2023-03-06T07:46:18.018Z,17.52
2023-03-06T07:48:45.528Z,18.75
2023-03-06T07:51:16.065Z,19.77
2023-03-06T07:53:43.336Z,17.40
2023-03-06T07:56:11.973Z,18.48
2023-03-06T07:58:41.778Z,17.98
2023-03-06T08:01:14.827Z,19.33
2023-03-06T08:03:42.401Z,17.70
2023-03-06T08:06:14.903Z,17.52
2023-03-06T08:08:44.681Z,17.13
2023-03-06T08:11:13.865Z,17.70
2023-03-06T08:13:41.689Z,18.60
2023-03-06T08:16:09.311Z,16.90
2023-03-06T08:18:38.184Z,16.17
2023-03-06T08:21:16.626Z,16.52
2023-03-06T08:23:44.387Z,17.00
2023-03-06T08:26:17.261Z,16.73
2023-03-06T08:28:45.190Z,16.02
2023-03-06T08:31:19.895Z,15.57
2023-03-06T08:33:48.028Z,16.65
2023-03-06T08:36:15.341Z,16.85
2023-03-06T08:38:42.615Z,16.65
2023-03-06T08:41:09.952Z,16.02
2023-03-06T08:43:37.378Z,16.25
2023-03-06T08:46:04.934Z,14.02
2023-03-06T08:48:32.165Z,16.00
2023-03-06T08:50:59.899Z,15.70
2023-03-06T08:53:41.784Z,15.45
2023-03-06T08:56:34.062Z,15.32
2023-03-06T08:59:03.920Z,14.63
2023-03-06T09:01:34.718Z,15.35
2023-03-06T09:04:04.601Z,15.27
2023-03-06T09:06:34.224Z,15.38
2023-03-06T09:09:01.605Z,14.80
2023-03-06T09:11:29.296Z,16.23
2023-03-06T09:13:57.107Z,16.10
2023-03-06T09:16:24.893Z,15.18
2023-03-06T09:18:54.036Z,14.95
2023-03-06T09:21:25.195Z,14.88
2023-03-06T09:23:52.789Z,15.10
2023-03-06T09:26:20.551Z,15.20
2023-03-06T09:28:47.802Z,15.57
2023-03-06T09:31:20.047Z,15.20
2023-03-06T09:33:48.300Z,14.38
2023-03-06T09:36:22.762Z,14.63
2023-03-06T09:38:50.568Z,14.93
2023-03-06T09:41:26.898Z,13.77
2023-03-06T09:44:04.847Z,14.10
2023-03-06T09:46:41.387Z,14.77
2023-03-06T09:49:18.140Z,13.90
2023-03-06T09:51:51.151Z,13.38
2023-03-06T09:54:23.254Z,13.70
2023-03-06T09:56:50.953Z,14.13
2023-03-06T09:59:25.457Z,14.50
2023-03-06T10:02:02.928Z,14.13
2023-03-06T10:04:36.709Z,13.35
2023-03-06T10:07:35.013Z,13.48
2023-03-06T10:10:06.391Z,14.23
2023-03-06T10:12:42.876Z,13.90
2023-03-06T10:15:26.631Z,13.80
2023-03-06T10:17:57.380Z,13.98
2023-03-06T10:20:29.223Z,13.75
2023-03-06T10:23:25.192Z,13.80
2023-03-06T10:26:11.414Z,15.05
2023-03-06T10:28:49.050Z,14.60
2023-03-06T10:31:35.693Z,14.77
2023-03-06T10:34:23.053Z,14.15
2023-03-06T10:36:51.780Z,14.75
2023-03-06T10:39:22.508Z,13.63
2023-03-06T10:41:50.889Z,13.40
2023-03-06T10:44:21.304Z,13.25
2023-03-06T10:46:51.937Z,13.25
2023-03-06T10:49:40.947Z,12.73
2023-03-06T10:52:14.343Z,13.18
2023-03-06T10:54:45.132Z,12.80
2023-03-06T10:57:32.793Z,12.95
2023-03-06T11:00:05.426Z,13.10
2023-03-06T11:02:39.696Z,13.10
2023-03-06T11:05:18.725Z,13.43
2023-03-06T11:07:59.232Z,13.07
2023-03-06T11:10:27.971Z,13.25
2023-03-06T11:13:19.210Z,13.77
2023-03-06T11:16:15.433Z,12.48
2023-03-06T11:18:54.456Z,11.48
2023-03-06T11:21:31.485Z,11.73
2023-03-06T11:24:20.174Z,13.35
2023-03-06T11:26:58.461Z,12.45
2023-03-06T11:29:29.641Z,12.57
2023-03-06T11:32:05.597Z,11.93
2023-03-06T11:34:59.431Z,12.45
2023-03-06T11:37:32.715Z,12.45
2023-03-06T11:40:05.864Z,12.40
2023-03-06T11:42:42.038Z,11.15
2023-03-06T11:45:32.070Z,11.77
2023-03-06T11:48:14.316Z,11.38
2023-03-06T11:50:52.718Z,12.15
2023-03-06T11:53:23.292Z,12.20
2023-03-06T11:56:22.936Z,12.98
2023-03-06T11:59:14.841Z,12.18
2023-03-06T12:01:47.898Z,12.32
2023-03-06T12:04:45.984Z,11.63
2023-03-06T12:07:26.161Z,12.38
2023-03-06T12:12:48.990Z,13.07
2023-03-06T12:15:58.036Z,13.55
2023-03-06T12:18:53.099Z,12.10
2023-03-06T12:21:26.275Z,12.75
2023-03-06T12:24:17.834Z,12.50
2023-03-06T12:27:29.635Z,12.45
2023-03-06T12:30:18.301Z,12.32
2023-03-06T12:33:00.301Z,11.38
2023-03-06T12:35:58.535Z,11.20
2023-03-06T12:38:31.689Z,11.40
2023-03-06T12:41:13.331Z,11.07
2023-03-06T12:43:40.537Z,11.80
2023-03-06T12:46:18.043Z,11.13
2023-03-06T12:49:01.884Z,11.45
2023-03-06T12:51:30.220Z,11.43
2023-03-06T12:54:00.239Z,12.38
2023-03-06T12:56:28.726Z,12.70
2023-03-06T12:58:57.939Z,11.77
2023-03-06T13:02:04.263Z,12.38
2023-03-06T13:04:53.415Z,10.98
2023-03-06T13:07:47.456Z,12.25
2023-03-06T13:10:28.104Z,12.23
2023-03-06T13:13:05.091Z,11.75
2023-03-06T13:15:41.276Z,12.15
2023-03-06T13:18:24.990Z,11.43
2023-03-06T13:20:54.044Z,11.60
2023-03-06T13:23:32.537Z,10.85
2023-03-06T13:26:02.243Z,11.45
2023-03-06T13:28:50.181Z,11.10
2023-03-06T13:31:32.528Z,11.80
2023-03-06T13:34:04.617Z,10.88
2023-03-06T13:39:09.147Z,10.50
2023-03-06T13:41:58.188Z,10.35
2023-03-06T13:44:25.408Z,10.52
2023-03-06T13:47:28.345Z,10.25
2023-03-06T13:49:56.157Z,9.80
2023-03-06T13:53:01.468Z,9.93
2023-03-06T13:55:58.779Z,10.80
2023-03-06T13:58:31.847Z,9.45
2023-03-06T14:01:01.799Z,9.27
2023-03-06T14:04:05.077Z,10.88
2023-03-06T14:06:35.413Z,9.95
2023-03-06T14:09:06.878Z,10.40
2023-03-06T14:11:35.590Z,10.57
2023-03-06T14:14:03.565Z,10.57
2023-03-06T14:16:49.269Z,10.43
2023-03-06T14:19:19.296Z,10.40
2023-03-06T14:21:57.595Z,10.15
2023-03-06T14:24:35.226Z,11.02
2023-03-06T14:27:02.622Z,10.65
2023-03-06T14:29:30.785Z,10.68
2023-03-06T14:32:00.248Z,10.70
2023-03-06T14:34:30.280Z,11.15
2023-03-06T14:37:02.649Z,10.65
2023-03-06T14:39:40.324Z,11.93
2023-03-06T14:42:28.703Z,11.60
2023-03-06T14:45:17.299Z,11.73
2023-03-06T14:47:51.058Z,12.20
2023-03-06T14:50:23.398Z,12.20
2023-03-06T14:52:58.002Z,11.40
2023-03-06T14:55:28.131Z,12.75
2023-03-06T14:58:16.776Z,11.23
2023-03-06T15:00:46.066Z,12.07
2023-03-06T15:03:20.051Z,11.95
2023-03-06T15:05:48.828Z,12.38
2023-03-06T15:08:24.216Z,12.00
2023-03-06T15:11:00.043Z,12.25
2023-03-06T15:13:29.414Z,12.27
2023-03-06T15:16:02.195Z,11.50
2023-03-06T15:18:36.327Z,12.60
2023-03-06T15:21:18.260Z,11.60
2023-03-06T15:23:48.148Z,12.52
2023-03-06T15:26:31.819Z,12.57
2023-03-06T15:29:11.178Z,12.40
2023-03-06T15:31:43.778Z,11.60
2023-03-06T15:34:11.000Z,12.35
2023-03-06T15:36:39.507Z,11.65
2023-03-06T15:39:36.184Z,10.50
2023-03-06T15:42:15.136Z,12.10
2023-03-06T15:44:42.497Z,11.23
2023-03-06T15:47:11.991Z,10.68
2023-03-06T15:49:40.385Z,11.07
2023-03-06T15:52:08.127Z,12.05
2023-03-06T15:54:35.881Z,11.90
2023-03-06T15:57:06.378Z,11.43
2023-03-06T15:59:41.593Z,12.60
2023-03-06T16:02:18.024Z,12.20
2023-03-06T16:04:46.031Z,13.05
2023-03-06T16:07:13.885Z,13.13
2023-03-06T16:09:42.044Z,12.65
2023-03-06T16:12:20.879Z,13.48
2023-03-06T16:14:49.218Z,13.55
2023-03-06T16:17:17.125Z,15.07
2023-03-06T16:19:44.575Z,14.45
2023-03-06T16:22:12.300Z,13.95
2023-03-06T16:24:39.557Z,14.43
2023-03-06T16:27:07.117Z,15.48
2023-03-06T16:29:35.286Z,15.10
2023-03-06T16:32:02.769Z,14.73
2023-03-06T16:34:30.124Z,15.35
2023-03-06T16:36:58.206Z,14.52
2023-03-06T16:39:25.666Z,15.40
2023-03-06T16:41:52.970Z,15.45
2023-03-06T16:44:20.594Z,16.85
2023-03-06T16:46:50.193Z,15.75
2023-03-06T16:49:27.041Z,15.73
2023-03-06T16:51:54.972Z,15.10
2023-03-06T16:54:26.077Z,15.75
2023-03-06T16:56:53.338Z,16.48
2023-03-06T16:59:20.573Z,15.57
2023-03-06T17:01:47.958Z,16.27
2023-03-06T17:04:15.303Z,16.92
2023-03-06T17:06:43.240Z,15.80
2023-03-06T17:09:14.488Z,16.95
2023-03-06T17:11:44.927Z,16.75
2023-03-06T17:14:12.269Z,16.25
2023-03-06T17:16:40.568Z,16.88
2023-03-06T17:19:08.155Z,16.55
2023-03-06T17:21:38.460Z,16.25
2023-03-06T17:24:06.731Z,16.83
2023-03-06T17:26:36.545Z,15.75
2023-03-06T17:29:06.917Z,16.30
2023-03-06T17:31:34.325Z,17.23
2023-03-06T17:34:01.578Z,15.55
2023-03-06T17:36:30.714Z,16.35
2023-03-06T17:38:59.800Z,16.75
2023-03-06T17:41:27.520Z,16.70
2023-03-06T17:43:58.491Z,16.63
2023-03-06T17:46:26.111Z,16.73
2023-03-06T17:48:54.477Z,16.65
2023-03-06T17:51:21.672Z,16.45
2023-03-06T17:53:49.473Z,17.35
2023-03-06T17:56:16.826Z,15.95
2023-03-06T17:58:44.234Z,16.55
2023-03-06T18:01:12.943Z,16.38
2023-03-06T18:03:43.409Z,16.55
2023-03-06T18:06:11.154Z,16.90
2023-03-06T18:08:38.608Z,16.15
2023-03-06T18:11:07.959Z,16.60
2023-03-06T18:13:37.046Z,16.15
2023-03-06T18:16:05.739Z,15.75
2023-03-06T18:18:33.205Z,15.55
2023-03-06T18:21:09.164Z,14.35
2023-03-06T18:23:37.358Z,15.13
2023-03-06T18:26:14.191Z,16.33
2023-03-06T18:28:44.668Z,14.93
2023-03-06T18:31:26.746Z,14.85
2023-03-06T18:36:26.409Z,15.00
2023-03-06T18:38:53.726Z,15.60
2023-03-06T18:41:22.047Z,14.50
2023-03-06T18:43:54.506Z,15.85
2023-03-06T18:46:22.198Z,15.52
2023-03-06T18:48:49.511Z,16.23
2023-03-06T18:51:17.182Z,15.13
2023-03-06T18:53:44.480Z,15.70
2023-03-06T18:56:20.369Z,15.93
2023-03-06T18:58:48.400Z,16.10
2023-03-06T19:01:15.900Z,16.48
2023-03-06T19:03:43.455Z,15.70
2023-03-06T19:06:14.343Z,15.85
2023-03-06T19:08:41.772Z,16.45
2023-03-06T19:11:14.889Z,15.57
2023-03-06T19:13:42.785Z,15.75
2023-03-06T19:16:18.082Z,15.82
2023-03-06T19:18:45.366Z,15.88
2023-03-06T19:21:15.352Z,17.30
2023-03-06T19:23:43.591Z,16.52
2023-03-06T19:26:11.503Z,15.75
2023-03-06T19:28:41.542Z,16.20
2023-03-06T19:31:13.272Z,16.42
2023-03-06T19:33:42.023Z,16.52
2023-03-06T19:36:12.219Z,16.95
2023-03-06T19:38:39.761Z,16.90
2023-03-06T19:41:11.922Z,16.75
2023-03-06T19:43:40.833Z,17.30
2023-03-06T19:46:13.156Z,17.10
2023-03-06T19:48:41.409Z,15.68
2023-03-06T19:51:09.969Z,15.48
2023-03-06T19:53:38.914Z,15.65
2023-03-06T19:56:08.132Z,16.40
2023-03-06T19:58:35.497Z,15.80
2023-03-06T20:01:07.948Z,15.80
2023-03-06T20:03:35.253Z,16.55
2023-03-06T20:06:06.272Z,17.10
2023-03-06T20:08:33.582Z,16.48
2023-03-06T20:11:00.965Z,16.92
2023-03-06T20:13:29.479Z,17.05
2023-03-06T20:15:58.349Z,17.25
2023-03-06T20:18:26.187Z,16.98
2023-03-06T20:21:01.416Z,17.42
2023-03-06T20:23:28.722Z,18.05
2023-03-06T20:25:56.034Z,17.40
2023-03-06T20:28:23.680Z,17.17
2023-03-06T20:30:51.048Z,17.77
2023-03-06T20:33:19.692Z,17.55
2023-03-06T20:35:47.058Z,17.77
2023-03-06T20:38:14.824Z,17.75
2023-03-06T20:40:43.464Z,17.10
2023-03-06T20:43:10.930Z,17.58
2023-03-06T20:45:38.215Z,18.13
2023-03-06T20:48:05.598Z,17.55
2023-03-06T20:50:32.822Z,17.55
2023-03-06T20:53:00.019Z,17.98
2023-03-06T20:55:27.264Z,18.02
2023-03-06T20:57:55.001Z,16.75
2023-03-06T21:00:24.562Z,17.38
2023-03-06T21:02:52.203Z,17.58
2023-03-06T21:05:19.535Z,17.70
2023-03-06T21:07:46.914Z,18.13
2023-03-06T21:10:15.120Z,17.17
2023-03-06T21:12:42.423Z,16.60
2023-03-06T21:15:10.048Z,16.23
2023-03-06T21:17:37.259Z,17.17
2023-03-06T21:20:05.910Z,18.73
2023-03-06T21:22:33.197Z,16.95
2023-03-06T21:25:00.443Z,16.60
2023-03-06T21:27:27.687Z,15.77
2023-03-06T21:29:54.911Z,15.65
2023-03-06T21:32:23.192Z,16.25
2023-03-06T21:34:50.605Z,16.45
2023-03-06T21:37:17.839Z,15.48
2023-03-06T21:39:45.053Z,17.00
2023-03-06T21:42:12.260Z,14.88
2023-03-06T21:44:41.776Z,14.70
2023-03-06T21:47:11.106Z,16.17
2023-03-06T21:49:39.219Z,15.40
2023-03-06T21:52:06.896Z,14.35
2023-03-06T21:54:34.186Z,14.27
2023-03-06T21:57:01.412Z,13.95
2023-03-06T21:59:28.689Z,13.65
2023-03-06T22:01:55.965Z,14.57
2023-03-06T22:04:23.302Z,15.02
2023-03-06T22:06:50.567Z,14.45
2023-03-06T22:09:19.127Z,13.60
2023-03-06T22:11:46.330Z,14.55
2023-03-06T22:14:14.834Z,13.48
2023-03-06T22:16:42.241Z,14.80
2023-03-06T22:19:09.484Z,15.18
2023-03-06T22:21:36.736Z,14.20
2023-03-06T22:24:04.671Z,14.35
2023-03-06T22:26:31.917Z,16.17
2023-03-06T22:28:59.125Z,14.48
2023-03-06T22:31:28.749Z,14.20
2023-03-06T22:33:58.463Z,15.77
2023-03-06T22:36:26.853Z,14.68
2023-03-06T22:38:56.426Z,12.85
2023-03-06T22:41:23.906Z,14.43
2023-03-06T22:43:51.221Z,14.77
2023-03-06T22:46:18.873Z,13.93
2023-03-06T22:48:46.301Z,13.88
2023-03-06T22:51:16.470Z,13.73
2023-03-06T22:53:44.749Z,13.63
2023-03-06T22:56:15.285Z,14.02
2023-03-06T22:58:44.775Z,14.63
2023-03-06T23:01:23.279Z,13.18
2023-03-06T23:03:52.463Z,14.60
2023-03-06T23:06:31.898Z,15.32
2023-03-06T23:09:05.957Z,13.80
2023-03-06T23:11:52.341Z,14.68
2023-03-06T23:14:38.444Z,14.98
2023-03-06T23:17:24.395Z,14.40
2023-03-06T23:20:12.021Z,13.18
2023-03-06T23:22:58.091Z,14.73
2023-03-06T23:25:44.012Z,15.02
2023-03-06T23:28:12.315Z,16.05
2023-03-06T23:30:39.837Z,14.32
2023-03-06T23:33:07.486Z,14.55
2023-03-06T23:35:36.085Z,15.32
2023-03-06T23:38:03.500Z,15.40
2023-03-06T23:40:33.654Z,14.50
2023-03-06T23:43:01.491Z,15.43
2023-03-06T23:45:28.739Z,15.90
2023-03-06T23:47:56.403Z,15.77
2023-03-06T23:50:24.727Z,14.38
2023-03-06T23:52:55.673Z,15.20
2023-03-06T23:55:22.966Z,15.38
2023-03-06T23:57:50.238Z,15.32
